createdAt,value
2022-12-18T00:01:21.417Z,70.90
2022-12-18T00:03:48.787Z,71.90
2022-12-18T00:06:16.702Z,79.00
2022-12-18T00:08:44.432Z,71.80
2022-12-18T00:11:23.181Z,71.05
2022-12-18T00:13:50.689Z,71.43
2022-12-18T00:16:23.081Z,73.22
2022-12-18T00:18:51.249Z,71.40
2022-12-18T00:21:18.702Z,69.85
2022-12-18T00:23:46.752Z,69.03
2022-12-18T00:26:21.677Z,69.75
2022-12-18T00:28:49.012Z,69.88
2022-12-18T00:31:18.401Z,68.78
2022-12-18T00:33:45.379Z,66.70
2022-12-18T00:36:15.773Z,65.57
2022-12-18T00:38:42.528Z,65.75
2022-12-18T00:41:10.680Z,68.55
2022-12-18T00:43:38.961Z,66.47
2022-12-18T00:46:06.463Z,68.38
2022-12-18T00:48:33.180Z,66.13
2022-12-18T00:50:59.684Z,67.50
2022-12-18T00:53:26.236Z,69.18
2022-12-18T00:55:52.775Z,65.25
2022-12-18T00:58:19.717Z,64.70
2022-12-18T01:00:46.329Z,66.60
2022-12-18T01:03:15.743Z,67.43
2022-12-18T01:05:43.029Z,66.40
2022-12-18T01:08:10.224Z,66.68
2022-12-18T01:10:36.806Z,67.88
2022-12-18T01:13:03.384Z,66.70
2022-12-18T01:15:29.879Z,65.97
2022-12-18T01:17:56.406Z,67.63
2022-12-18T01:20:23.042Z,68.93
2022-12-18T01:22:49.564Z,68.97
2022-12-18T01:25:16.213Z,68.03
2022-12-18T01:27:42.720Z,68.05
2022-12-18T01:30:09.696Z,70.45
2022-12-18T01:32:36.237Z,72.75
2022-12-18T01:35:03.198Z,74.88
2022-12-18T01:37:29.980Z,80.05
2022-12-18T01:39:56.577Z,80.18
2022-12-18T01:42:23.149Z,79.60
2022-12-18T01:45:12.775Z,79.78
2022-12-18T01:47:41.227Z,75.75
2022-12-18T01:50:18.461Z,73.25
2022-12-18T01:52:48.693Z,72.57
2022-12-18T01:55:19.261Z,73.35
2022-12-18T01:57:47.308Z,71.75
2022-12-18T02:00:18.505Z,73.75
2022-12-18T02:02:47.220Z,75.53
2022-12-18T02:05:18.762Z,75.05
2022-12-18T02:08:07.649Z,75.32
2022-12-18T02:10:48.105Z,74.90
2022-12-18T02:13:25.099Z,77.00
2022-12-18T02:16:00.616Z,77.82
2022-12-18T02:18:41.957Z,77.03
2022-12-18T02:21:35.255Z,79.10
2022-12-18T02:24:18.513Z,77.03
2022-12-18T02:26:54.323Z,79.55
2022-12-18T02:29:29.836Z,85.07
2022-12-18T02:32:00.252Z,87.07
2022-12-18T02:34:31.351Z,85.90
2022-12-18T02:37:01.052Z,91.10
2022-12-18T02:39:30.320Z,95.38
2022-12-18T02:41:58.526Z,101.15
2022-12-18T02:44:25.061Z,94.60
2022-12-18T02:46:53.527Z,96.10
2022-12-18T02:49:40.769Z,96.50
2022-12-18T02:52:13.197Z,98.75
2022-12-18T02:55:01.401Z,100.22
2022-12-18T02:57:49.231Z,109.32
2022-12-18T03:00:22.586Z,107.20
2022-12-18T03:03:04.410Z,107.28
2022-12-18T03:05:54.530Z,111.07
2022-12-18T03:08:43.518Z,105.72
2022-12-18T03:11:12.250Z,101.57
2022-12-18T03:13:51.865Z,104.32
2022-12-18T03:16:24.211Z,104.72
2022-12-18T03:18:56.927Z,102.78
2022-12-18T03:21:29.945Z,103.97
2022-12-18T03:23:57.798Z,105.40
2022-12-18T03:26:28.078Z,106.35
2022-12-18T03:29:00.380Z,108.93
2022-12-18T03:31:30.588Z,105.40
2022-12-18T03:34:02.009Z,108.72
2022-12-18T03:36:29.019Z,109.45
2022-12-18T03:38:55.549Z,112.72
2022-12-18T03:41:46.112Z,114.35
2022-12-18T03:44:18.156Z,108.30
2022-12-18T03:47:13.793Z,114.03
2022-12-18T03:49:53.854Z,111.10
2022-12-18T03:52:40.681Z,114.00
2022-12-18T03:55:10.203Z,115.93
2022-12-18T03:57:38.306Z,116.80
2022-12-18T04:00:12.976Z,123.93
2022-12-18T04:05:09.449Z,105.18
2022-12-18T04:07:37.053Z,113.55
2022-12-18T04:10:05.469Z,123.45
2022-12-18T04:12:32.028Z,134.68
2022-12-18T04:14:58.660Z,139.80
2022-12-18T04:17:25.505Z,139.73
2022-12-18T04:19:52.041Z,133.02
2022-12-18T04:22:21.149Z,132.35
2022-12-18T04:24:47.689Z,138.07
2022-12-18T04:27:14.244Z,135.70
2022-12-18T04:29:40.878Z,131.75
2022-12-18T04:32:08.204Z,133.43
2022-12-18T04:34:34.704Z,165.32
2022-12-18T04:37:01.257Z,137.23
2022-12-18T04:39:27.902Z,141.20
2022-12-18T04:41:54.460Z,154.35
2022-12-18T04:44:21.438Z,144.95
2022-12-18T04:46:48.019Z,154.85
2022-12-18T04:49:14.658Z,153.18
2022-12-18T04:51:41.177Z,166.18
2022-12-18T04:54:07.649Z,166.40
2022-12-18T04:56:34.208Z,165.02
2022-12-18T04:59:00.723Z,151.45
2022-12-18T05:01:34.109Z,143.93
2022-12-18T05:04:01.924Z,139.10
2022-12-18T05:06:28.464Z,129.32
2022-12-18T05:08:54.946Z,125.00
2022-12-18T05:11:21.681Z,117.88
2022-12-18T05:13:48.240Z,115.78
2022-12-18T05:16:15.603Z,120.68
2022-12-18T05:18:42.658Z,109.93
2022-12-18T05:21:09.518Z,108.85
2022-12-18T05:23:37.215Z,107.90
2022-12-18T05:26:06.202Z,112.43
2022-12-18T05:28:34.447Z,117.95
2022-12-18T05:31:03.274Z,115.05
2022-12-18T05:33:32.792Z,119.70
2022-12-18T05:36:04.575Z,116.22
2022-12-18T05:38:32.247Z,122.00
2022-12-18T05:40:59.269Z,120.30
2022-12-18T05:43:27.264Z,128.85
2022-12-18T05:45:54.373Z,116.05
2022-12-18T05:48:21.585Z,108.68
2022-12-18T05:50:49.494Z,122.18
2022-12-18T05:53:18.915Z,107.78
2022-12-18T05:55:45.499Z,116.45
2022-12-18T05:58:13.701Z,119.78
2022-12-18T06:00:43.386Z,109.13
2022-12-18T06:03:12.269Z,110.20
2022-12-18T06:05:44.316Z,115.13
2022-12-18T06:08:11.902Z,114.55
2022-12-18T06:10:38.945Z,121.05
2022-12-18T06:13:06.768Z,131.70
2022-12-18T06:15:34.032Z,124.47
2022-12-18T06:18:01.689Z,125.03
2022-12-18T06:20:33.231Z,120.75
2022-12-18T06:23:00.336Z,121.82
2022-12-18T06:25:27.147Z,124.05
2022-12-18T06:27:53.698Z,117.88
2022-12-18T06:30:20.524Z,109.82
2022-12-18T06:32:50.496Z,100.28
2022-12-18T06:35:19.574Z,106.00
2022-12-18T06:37:47.695Z,112.45
2022-12-18T06:40:14.196Z,119.43
2022-12-18T06:42:40.741Z,122.60
2022-12-18T06:45:07.790Z,121.40
2022-12-18T06:47:34.336Z,115.85
2022-12-18T06:50:00.820Z,114.82
2022-12-18T06:52:27.319Z,111.78
2022-12-18T06:54:53.829Z,107.63
2022-12-18T06:57:20.428Z,100.57
2022-12-18T06:59:46.954Z,100.63
2022-12-18T07:02:14.252Z,101.80
2022-12-18T07:04:41.221Z,100.85
2022-12-18T07:07:07.833Z,558.28
2022-12-18T07:09:34.457Z,102.50
2022-12-18T07:12:00.978Z,106.05
2022-12-18T07:14:27.651Z,113.13
2022-12-18T07:16:54.275Z,108.53
2022-12-18T07:19:21.407Z,115.68
2022-12-18T07:21:47.910Z,111.30
2022-12-18T07:24:14.429Z,118.10
2022-12-18T07:26:40.922Z,129.45
2022-12-18T07:29:07.541Z,124.30
2022-12-18T07:31:34.161Z,128.13
2022-12-18T07:34:00.737Z,130.02
2022-12-18T07:36:27.373Z,131.90
2022-12-18T07:38:54.003Z,125.97
2022-12-18T07:41:20.951Z,120.57
2022-12-18T07:43:48.161Z,128.07
2022-12-18T07:46:16.599Z,126.18
2022-12-18T07:48:46.126Z,143.75
2022-12-18T07:51:17.513Z,149.75
2022-12-18T07:53:45.206Z,131.10
2022-12-18T07:56:30.522Z,114.32
2022-12-18T07:58:59.143Z,121.20
2022-12-18T08:01:26.363Z,129.20
2022-12-18T08:03:53.064Z,113.00
2022-12-18T08:06:22.778Z,79.85
2022-12-18T08:08:55.821Z,80.75
2022-12-18T08:11:23.650Z,96.38
2022-12-18T08:13:50.407Z,93.25
2022-12-18T08:16:18.013Z,91.65
2022-12-18T08:18:44.733Z,115.78
2022-12-18T08:21:22.004Z,121.18
2022-12-18T08:23:49.050Z,136.52
2022-12-18T08:26:16.899Z,179.05
2022-12-18T08:28:43.771Z,192.38
2022-12-18T08:31:10.542Z,193.77
2022-12-18T08:33:39.024Z,191.63
2022-12-18T08:36:06.480Z,166.85
2022-12-18T08:38:34.077Z,159.77
2022-12-18T08:41:01.786Z,143.75
2022-12-18T08:43:47.104Z,98.28
2022-12-18T08:46:13.990Z,92.20
2022-12-18T08:48:43.521Z,76.25
2022-12-18T08:51:10.731Z,55.20
2022-12-18T08:53:37.905Z,50.05
2022-12-18T08:56:05.692Z,47.70
2022-12-18T08:58:32.378Z,38.10
2022-12-18T09:01:03.375Z,38.25
2022-12-18T09:03:30.495Z,43.33
2022-12-18T09:05:57.476Z,42.35
2022-12-18T09:08:24.299Z,44.47
2022-12-18T09:10:52.554Z,39.10
2022-12-18T09:13:19.662Z,40.88
2022-12-18T09:15:48.749Z,38.03
2022-12-18T09:18:17.197Z,37.70
2022-12-18T09:20:44.057Z,35.40
2022-12-18T09:23:11.084Z,35.20
2022-12-18T09:25:38.541Z,37.55
2022-12-18T09:28:08.183Z,33.55
2022-12-18T09:30:35.405Z,33.80
2022-12-18T09:33:02.605Z,35.17
2022-12-18T09:35:29.158Z,34.17
2022-12-18T09:37:55.828Z,34.83
2022-12-18T09:40:26.561Z,34.70
2022-12-18T09:42:58.445Z,36.72
2022-12-18T09:45:25.402Z,34.67
2022-12-18T09:47:54.980Z,36.30
2022-12-18T09:50:40.892Z,37.33
2022-12-18T09:53:16.073Z,37.63
2022-12-18T09:55:45.845Z,35.75
2022-12-18T09:58:42.987Z,34.80
2022-12-18T10:01:24.231Z,35.25
2022-12-18T10:03:52.515Z,34.17
2022-12-18T10:06:31.048Z,33.95
2022-12-18T10:09:24.024Z,36.22
2022-12-18T10:12:08.580Z,35.72
2022-12-18T10:15:00.890Z,35.20
2022-12-18T10:18:00.124Z,39.03
2022-12-18T10:20:43.664Z,38.20
2022-12-18T10:23:43.678Z,38.08
2022-12-18T10:26:14.503Z,36.90
2022-12-18T10:28:42.947Z,37.42
2022-12-18T10:31:20.641Z,34.35
2022-12-18T10:33:47.526Z,31.98
2022-12-18T10:36:14.293Z,33.85
2022-12-18T10:38:41.687Z,32.28
2022-12-18T10:41:23.050Z,30.08
2022-12-18T10:44:09.575Z,32.97
2022-12-18T10:46:36.180Z,32.80
2022-12-18T10:49:02.971Z,31.95
2022-12-18T10:51:37.313Z,30.45
2022-12-18T10:56:36.836Z,28.33
2022-12-18T10:59:06.838Z,29.88
2022-12-18T11:01:58.595Z,30.83
2022-12-18T11:04:32.777Z,29.45
2022-12-18T11:07:02.374Z,29.42
2022-12-18T11:09:30.008Z,30.60
2022-12-18T11:12:00.251Z,27.90
2022-12-18T11:14:48.808Z,29.60
2022-12-18T11:17:35.896Z,28.77
2022-12-18T11:20:19.422Z,30.10
2022-12-18T11:22:56.890Z,27.35
2022-12-18T11:25:33.233Z,28.13
2022-12-18T11:28:05.677Z,28.35
2022-12-18T11:30:37.344Z,28.95
2022-12-18T11:33:12.054Z,30.98
2022-12-18T11:35:48.792Z,28.77
2022-12-18T11:38:37.796Z,28.38
2022-12-18T11:41:23.577Z,27.77
2022-12-18T11:43:59.107Z,28.40
2022-12-18T11:46:42.087Z,27.20
2022-12-18T11:49:13.357Z,29.60
2022-12-18T11:51:50.049Z,28.50
2022-12-18T11:54:17.382Z,27.25
2022-12-18T11:56:49.041Z,28.00
2022-12-18T11:59:26.773Z,27.80
2022-12-18T12:02:00.294Z,27.15
2022-12-18T12:04:42.569Z,26.13
2022-12-18T12:07:35.725Z,27.80
2022-12-18T12:10:17.256Z,28.33
2022-12-18T12:13:00.693Z,26.33
2022-12-18T12:15:58.349Z,26.05
2022-12-18T12:18:45.127Z,26.48
2022-12-18T12:21:17.636Z,27.48
2022-12-18T12:23:52.131Z,29.70
2022-12-18T12:26:46.335Z,30.05
2022-12-18T12:32:15.224Z,29.70
2022-12-18T12:35:17.579Z,29.80
2022-12-18T12:37:59.240Z,28.40
2022-12-18T12:43:25.277Z,30.23
2022-12-18T12:46:03.571Z,30.33
2022-12-18T12:48:30.847Z,33.45
2022-12-18T12:50:58.877Z,33.53
2022-12-18T12:53:31.752Z,35.28
2022-12-18T12:55:58.975Z,35.00
2022-12-18T12:58:47.470Z,34.25
2022-12-18T13:04:32.704Z,34.53
2022-12-18T13:07:27.187Z,37.05
2022-12-18T13:10:26.883Z,38.92
2022-12-18T13:13:09.009Z,36.97
2022-12-18T13:13:43.815Z,39.65
2022-12-18T13:15:46.881Z,37.33
2022-12-18T13:18:16.214Z,39.95
2022-12-18T13:20:55.366Z,35.08
2022-12-18T13:23:26.709Z,36.42
2022-12-18T13:26:13.897Z,37.35
2022-12-18T13:28:50.254Z,35.75
2022-12-18T13:31:41.848Z,38.13
2022-12-18T13:34:28.119Z,38.22
2022-12-18T13:37:00.378Z,37.20
2022-12-18T13:39:36.786Z,36.33
2022-12-18T13:42:06.985Z,40.15
2022-12-18T13:44:41.926Z,42.03
2022-12-18T13:47:34.815Z,39.63
2022-12-18T13:50:10.486Z,41.28
2022-12-18T13:52:40.302Z,41.38
2022-12-18T13:55:17.397Z,39.08
2022-12-18T13:57:44.268Z,40.45
2022-12-18T14:00:19.784Z,41.00
2022-12-18T14:02:47.381Z,40.40
2022-12-18T14:05:35.922Z,42.92
2022-12-18T14:08:13.685Z,43.03
2022-12-18T14:10:49.176Z,41.33
2022-12-18T14:13:38.313Z,41.78
2022-12-18T14:16:08.461Z,45.05
2022-12-18T14:18:49.253Z,41.28
2022-12-18T14:21:36.186Z,45.20
2022-12-18T14:24:19.767Z,45.55
2022-12-18T14:26:49.632Z,44.95
2022-12-18T14:29:28.818Z,44.75
2022-12-18T14:32:18.661Z,45.47
2022-12-18T14:34:51.144Z,45.47
2022-12-18T14:37:22.016Z,47.03
2022-12-18T14:40:07.296Z,43.90
2022-12-18T14:42:35.472Z,44.65
2022-12-18T14:45:42.634Z,44.03
2022-12-18T14:48:12.692Z,47.80
2022-12-18T14:50:41.035Z,45.00
2022-12-18T14:53:07.609Z,44.67
2022-12-18T14:55:34.196Z,46.60
2022-12-18T14:58:00.762Z,46.60
2022-12-18T15:00:27.521Z,45.88
2022-12-18T15:02:56.546Z,49.75
2022-12-18T15:05:29.414Z,45.92
2022-12-18T15:07:58.120Z,49.70
2022-12-18T15:10:29.053Z,44.08
2022-12-18T15:13:02.435Z,42.35
2022-12-18T15:15:38.111Z,43.33
2022-12-18T15:18:08.915Z,45.67
2022-12-18T15:20:51.457Z,43.65
2022-12-18T15:23:26.637Z,44.03
2022-12-18T15:26:02.043Z,43.28
2022-12-18T15:28:35.246Z,43.95
2022-12-18T15:31:32.230Z,44.40
2022-12-18T15:34:00.228Z,41.85
2022-12-18T15:36:30.713Z,43.30
2022-12-18T15:39:04.679Z,43.83
2022-12-18T15:41:35.800Z,44.05
2022-12-18T15:44:04.068Z,46.95
2022-12-18T15:46:31.914Z,45.97
2022-12-18T15:49:02.239Z,56.42
2022-12-18T15:51:33.605Z,50.90
2022-12-18T15:54:02.633Z,47.45
2022-12-18T15:56:47.305Z,44.80
2022-12-18T15:59:20.561Z,45.47
2022-12-18T16:01:51.237Z,43.72
2022-12-18T16:04:23.094Z,45.30
2022-12-18T16:09:37.582Z,41.25
2022-12-18T16:12:04.840Z,41.13
2022-12-18T16:14:33.059Z,41.83
2022-12-18T16:17:02.177Z,44.03
2022-12-18T16:19:29.437Z,42.35
2022-12-18T16:21:57.931Z,43.08
2022-12-18T16:24:30.415Z,43.20
2022-12-18T16:27:00.293Z,45.05
2022-12-18T16:29:28.662Z,43.75
2022-12-18T16:31:56.105Z,42.95
2022-12-18T16:34:29.837Z,41.97
2022-12-18T16:37:05.552Z,41.60
2022-12-18T16:39:35.277Z,38.95
2022-12-18T16:42:15.508Z,39.35
2022-12-18T16:44:42.335Z,40.15
2022-12-18T16:47:09.403Z,41.85
2022-12-18T16:49:37.712Z,43.55
2022-12-18T16:52:05.672Z,58.17
2022-12-18T16:54:33.601Z,42.63
2022-12-18T16:57:00.878Z,47.30
2022-12-18T16:59:27.678Z,45.30
2022-12-18T17:01:55.704Z,46.70
2022-12-18T17:04:22.373Z,41.70
2022-12-18T17:06:51.866Z,39.75
2022-12-18T17:09:25.943Z,41.33
2022-12-18T17:11:54.264Z,44.60
2022-12-18T17:14:23.946Z,45.83
2022-12-18T17:17:07.333Z,43.95
2022-12-18T17:19:37.801Z,42.38
2022-12-18T17:22:04.950Z,45.58
2022-12-18T17:24:34.752Z,79.97
2022-12-18T17:27:02.874Z,71.97
2022-12-18T17:29:29.421Z,47.20
2022-12-18T17:31:55.932Z,50.08
2022-12-18T17:34:23.866Z,45.72
2022-12-18T17:36:50.389Z,42.10
2022-12-18T17:39:20.020Z,43.55
2022-12-18T17:41:47.565Z,42.75
2022-12-18T17:44:14.421Z,64.30
2022-12-18T17:46:41.973Z,62.72
2022-12-18T17:49:09.330Z,55.90
2022-12-18T17:51:35.897Z,55.03
2022-12-18T17:54:02.528Z,61.40
2022-12-18T17:56:29.125Z,59.00
2022-12-18T17:58:55.724Z,64.13
2022-12-18T18:01:24.778Z,60.55
2022-12-18T18:03:53.914Z,46.38
2022-12-18T18:06:20.745Z,56.78
2022-12-18T18:08:47.818Z,54.40
2022-12-18T18:11:38.088Z,64.50
2022-12-18T18:14:16.353Z,62.35
2022-12-18T18:16:52.483Z,60.33
2022-12-18T18:19:24.111Z,60.38
2022-12-18T18:21:53.286Z,57.50
2022-12-18T18:24:23.310Z,56.95
2022-12-18T18:26:49.968Z,58.85
2022-12-18T18:29:19.733Z,52.83
2022-12-18T18:31:46.883Z,55.13
2022-12-18T18:34:18.582Z,52.95
2022-12-18T18:36:46.289Z,56.47
2022-12-18T18:39:13.914Z,55.85
2022-12-18T18:41:40.721Z,52.30
2022-12-18T18:44:10.127Z,53.05
2022-12-18T18:46:36.673Z,57.92
2022-12-18T18:49:03.475Z,63.90
2022-12-18T18:51:34.607Z,70.13
2022-12-18T18:54:01.726Z,77.97
2022-12-18T18:59:15.425Z,91.10
2022-12-18T19:01:42.095Z,99.35
2022-12-18T19:04:08.815Z,107.57
2022-12-18T19:06:35.422Z,106.85
2022-12-18T19:09:04.985Z,104.60
2022-12-18T19:11:51.007Z,104.57
2022-12-18T19:14:17.814Z,106.70
2022-12-18T19:16:45.511Z,107.65
2022-12-18T19:19:13.274Z,105.75
2022-12-18T19:21:40.837Z,97.13
2022-12-18T19:24:07.814Z,99.43
2022-12-18T19:26:36.284Z,98.53
2022-12-18T19:29:08.808Z,102.60
2022-12-18T19:31:37.170Z,91.93
2022-12-18T19:34:07.840Z,95.97
2022-12-18T19:36:36.994Z,101.00
2022-12-18T19:39:15.459Z,96.00
2022-12-18T19:41:42.829Z,93.72
2022-12-18T19:44:12.518Z,94.45
2022-12-18T19:46:41.627Z,95.20
2022-12-18T19:49:13.561Z,95.00
2022-12-18T19:51:44.322Z,89.22
2022-12-18T19:54:16.365Z,91.72
2022-12-18T19:56:44.189Z,87.25
2022-12-18T19:59:10.782Z,92.45
2022-12-18T20:01:37.543Z,88.55
2022-12-18T20:04:04.791Z,86.90
2022-12-18T20:06:35.510Z,100.05
2022-12-18T20:09:05.587Z,100.32
2022-12-18T20:11:37.510Z,108.28
2022-12-18T20:14:08.348Z,101.47
2022-12-18T20:16:35.382Z,101.78
2022-12-18T20:19:02.305Z,103.53
2022-12-18T20:21:29.613Z,97.07
2022-12-18T20:23:56.392Z,91.68
2022-12-18T20:26:24.034Z,94.75
2022-12-18T20:28:50.814Z,96.57
2022-12-18T20:31:17.606Z,90.20
2022-12-18T20:33:46.320Z,98.47
2022-12-18T20:36:21.428Z,95.90
2022-12-18T20:41:19.708Z,106.57
2022-12-18T20:43:46.946Z,101.15
2022-12-18T20:46:16.071Z,116.68
2022-12-18T20:48:43.697Z,112.88
2022-12-18T20:51:13.798Z,115.05
2022-12-18T20:53:41.793Z,116.60
2022-12-18T20:56:21.600Z,123.75
2022-12-18T20:58:50.236Z,131.65
2022-12-18T21:01:20.681Z,129.80
2022-12-18T21:03:48.212Z,141.10
2022-12-18T21:06:17.309Z,135.20
2022-12-18T21:08:44.707Z,134.77
2022-12-18T21:11:35.625Z,139.18
2022-12-18T21:14:04.389Z,127.22
2022-12-18T21:16:31.537Z,135.88
2022-12-18T21:18:58.429Z,142.85
2022-12-18T21:21:26.969Z,137.18
2022-12-18T21:23:54.661Z,141.77
2022-12-18T21:26:26.829Z,136.27
2022-12-18T21:29:02.027Z,135.05
2022-12-18T21:31:31.955Z,133.23
2022-12-18T21:34:01.287Z,138.65
2022-12-18T21:36:32.262Z,134.88
2022-12-18T21:38:59.508Z,131.95
2022-12-18T21:41:45.741Z,132.52
2022-12-18T21:44:17.404Z,133.98
2022-12-18T21:46:51.360Z,133.10
2022-12-18T21:49:21.582Z,132.25
2022-12-18T21:51:53.868Z,126.82
2022-12-18T21:54:21.045Z,124.72
2022-12-18T21:56:51.216Z,132.25
2022-12-18T21:59:30.941Z,127.18
2022-12-18T22:02:01.272Z,119.70
2022-12-18T22:04:28.769Z,120.63
2022-12-18T22:06:56.529Z,123.90
2022-12-18T22:09:24.716Z,126.95
2022-12-18T22:11:52.535Z,119.50
2022-12-18T22:14:20.350Z,118.00
2022-12-18T22:16:47.865Z,110.85
2022-12-18T22:19:15.027Z,106.05
2022-12-18T22:21:45.861Z,116.00
2022-12-18T22:24:24.227Z,110.97
2022-12-18T22:26:53.060Z,104.28
2022-12-18T22:29:43.008Z,329.48
2022-12-18T22:32:16.332Z,107.28
2022-12-18T22:34:43.583Z,107.28
2022-12-18T22:37:12.234Z,113.88
2022-12-18T22:39:39.228Z,108.40
2022-12-18T22:42:06.102Z,111.65
2022-12-18T22:44:32.664Z,111.78
2022-12-18T22:47:06.258Z,108.18
2022-12-18T22:49:35.093Z,108.25
2022-12-18T22:52:03.211Z,114.88
2022-12-18T22:54:29.922Z,102.60
2022-12-18T22:56:57.061Z,111.65
2022-12-18T22:59:24.051Z,103.10
2022-12-18T23:01:58.564Z,107.68
2022-12-18T23:04:30.617Z,109.35
2022-12-18T23:07:05.062Z,109.75
2022-12-18T23:09:32.857Z,102.40
2022-12-18T23:11:59.505Z,101.90
2022-12-18T23:14:26.573Z,101.45
2022-12-18T23:16:53.350Z,102.85
2022-12-18T23:19:20.490Z,89.32
2022-12-18T23:21:47.403Z,92.57
2022-12-18T23:24:14.619Z,94.22
2022-12-18T23:26:41.256Z,88.30
2022-12-18T23:29:07.927Z,82.38
2022-12-18T23:31:37.402Z,80.85
2022-12-18T23:34:05.470Z,83.32
2022-12-18T23:36:40.297Z,89.90
2022-12-18T23:39:28.784Z,89.93
2022-12-18T23:41:57.989Z,80.20
2022-12-18T23:44:25.001Z,87.65
2022-12-18T23:46:51.582Z,77.65
2022-12-18T23:49:18.153Z,81.32
2022-12-18T23:51:44.636Z,103.68
2022-12-18T23:54:11.211Z,82.78
2022-12-18T23:56:37.772Z,73.90
2022-12-18T23:59:04.583Z,77.38
